Details From MRLB - Daniel Oduber Quiros Intl
To MROC - San Jose Juan Santamaria Intl
Flight Number -
Tags generated
Created
Modified
Stats Distance 87 nm / 161 km
Max Altitude 8,800 ft / 2,682 m
Waypoints 3
Social Downloads 2
Likes 0
Share VATSIM

Download

Looking for another format? Having issues loading an existing format? Contact us
Advertisement - Login to hide

Notes

Basic altitude profile: - Ascent Rate: 2500ft/min - Ascent Speed: 250kts - Cruise Altitude: 35000ft - Cruise Speed: 420kts - Descent Rate: 1500ft/min - Descent Speed: 250kts Options: - Use NATs: yes - Use PACOTS: yes - Use low airways: yes - Use high airways: yes

Route

MRLB CANAS MROC

ID Type Via Altitude (ft/m) Position (lat/lon) Dist (leg/tot) Name
O MRLB APT - 0 / 0 10.59329 / -85.54441 - / 0 nm Daniel Oduber Quiros Intl
CANAS FIX - 8,800 / 2,682 10.27000 / -84.84833 45 / 45 nm
O MROC APT - 0 / 0 9.99393 / -84.20888 41 / 86 nm San Jose Juan Santamaria Intl

Altitude Profile

Advertisement - Login to hide

MRLB

Details ICAO MRLB (LIR)
Name Daniel Oduber Quiros Intl
Region Costa Rica
Timezone America/Costa_Rica (UTC-6.0)
Stats Elevation 270 ft / 82 m (AMSL)
Location 10.593400° -85.544500°
Runways 1
Magnetic Variation 1.173° W

METAR

MRLB 140600Z 00000KT CAVOK 25/22 A2985 NOSIG

Decode

TAF

Not found

Departure Runways

ID Width Length Bearing (true/mag) Surface Threshold Overrun Markings Lighting
07 148 ft / 45 m 9,031 ft / 2,753 m 70.05° / 71.22° ASPHALT 0 ft / 0 m 0 ft / 0 m PREC-APP CENTERLINE EDGE THRESHOLD ALSF-II
25 148 ft / 45 m 9,031 ft / 2,753 m 250.05° / 251.23° ASPHALT 0 ft / 0 m 0 ft / 0 m PREC-APP CENTERLINE EDGE THRESHOLD ALSF-II

MROC

Details ICAO MROC (SJO)
Name Juan Santamaria Intl - Alajuela
Region Costa Rica
Timezone America/Costa_Rica (UTC-6.0)
Stats Elevation 3,021 ft / 921 m (AMSL)
Location 9.993890° -84.208900°
Runways 1
Magnetic Variation 1.852° W

METAR

MROC 140600Z 01002KT 310V050 CAVOK 20/19 A3000 NOSIG

Decode

TAF

Not found

Destination Runways

ID Width Length Bearing (true/mag) Surface Threshold Overrun Markings Lighting
07 148 ft / 45 m 9,892 ft / 3,015 m 69.13° / 70.98° ASPHALT 0 ft / 0 m 190 ft / 58 m PREC-APP EDGE THRESHOLD MALS REIL-OMNI
25 148 ft / 45 m 9,892 ft / 3,015 m 249.13° / 250.98° ASPHALT 1,621 ft / 494 m 190 ft / 58 m PREC-APP EDGE THRESHOLD REIL-OMNI

Approach Navaids

Runway Type Ident Frequency Range Bearing (true/mag) Slope Elevation
07 GS IOCO 109.50 MHz 10 nm / 19 km 69.83° / 71.68 ° 3.00° 930 ft / 283 m (AMSL)
07 DME IOCO 109.50 MHz 18 nm / 33 km - - 930 ft / 283 m (AMSL)
07 OM OM - - 68.91° / 70.77 ° - 3,021 ft / 921 m (AMSL)
07 LOC-ILS IOCO 109.50 MHz 18 nm / 33 km 68.89° / 70.74 ° - 930 ft / 283 m (AMSL)

Popular Alternatives